sensor_id;sensor_type;location;lat;lon;timestamp;P1;durP1;ratioP1;P2;durP2;ratioP2
36405;SDS011;22438;42.670;23.288;2023-02-01T00:00:24;10.30;;;4.93;;
36405;SDS011;22438;42.670;23.288;2023-02-01T00:03:45;11.50;;;4.10;;
36405;SDS011;22438;42.670;23.288;2023-02-01T00:07:05;8.10;;;4.10;;
36405;SDS011;22438;42.670;23.288;2023-02-01T00:10:26;11.00;;;3.97;;
36405;SDS011;22438;42.670;23.288;2023-02-01T00:13:47;8.40;;;3.70;;
36405;SDS011;22438;42.670;23.288;2023-02-01T00:17:08;8.70;;;4.38;;
36405;SDS011;22438;42.670;23.288;2023-02-01T00:20:29;9.05;;;4.10;;
36405;SDS011;22438;42.670;23.288;2023-02-01T00:23:49;7.63;;;4.22;;
36405;SDS011;22438;42.670;23.288;2023-02-01T00:27:10;7.70;;;4.10;;
36405;SDS011;22438;42.670;23.288;2023-02-01T00:30:31;7.85;;;3.80;;
36405;SDS011;22438;42.670;23.288;2023-02-01T00:33:51;6.85;;;3.83;;
36405;SDS011;22438;42.670;23.288;2023-02-01T00:37:12;8.80;;;3.95;;
36405;SDS011;22438;42.670;23.288;2023-02-01T00:40:33;8.00;;;3.50;;
36405;SDS011;22438;42.670;23.288;2023-02-01T00:43:53;8.32;;;3.40;;
36405;SDS011;22438;42.670;23.288;2023-02-01T00:47:14;8.23;;;3.88;;
36405;SDS011;22438;42.670;23.288;2023-02-01T00:50:35;8.00;;;4.03;;
36405;SDS011;22438;42.670;23.288;2023-02-01T00:53:55;7.43;;;3.65;;
36405;SDS011;22438;42.670;23.288;2023-02-01T00:57:16;7.18;;;3.53;;
36405;SDS011;22438;42.670;23.288;2023-02-01T01:00:37;8.23;;;2.85;;
36405;SDS011;22438;42.670;23.288;2023-02-01T01:03:58;11.52;;;3.33;;
36405;SDS011;22438;42.670;23.288;2023-02-01T01:07:19;7.30;;;3.33;;
36405;SDS011;22438;42.670;23.288;2023-02-01T01:10:40;14.32;;;3.40;;
36405;SDS011;22438;42.670;23.288;2023-02-01T01:14:01;8.70;;;3.70;;
36405;SDS011;22438;42.670;23.288;2023-02-01T01:17:22;7.55;;;3.45;;
36405;SDS011;22438;42.670;23.288;2023-02-01T01:20:43;5.28;;;2.70;;
36405;SDS011;22438;42.670;23.288;2023-02-01T01:24:04;6.82;;;3.25;;
36405;SDS011;22438;42.670;23.288;2023-02-01T01:27:25;7.72;;;3.10;;
36405;SDS011;22438;42.670;23.288;2023-02-01T01:30:46;5.82;;;3.10;;
36405;SDS011;22438;42.670;23.288;2023-02-01T01:34:08;5.88;;;2.55;;
36405;SDS011;22438;42.670;23.288;2023-02-01T01:37:28;6.57;;;3.00;;
36405;SDS011;22438;42.670;23.288;2023-02-01T01:40:49;4.03;;;2.40;;
36405;SDS011;22438;42.670;23.288;2023-02-01T01:48:10;9.00;;;3.13;;
36405;SDS011;22438;42.670;23.288;2023-02-01T01:51:32;6.47;;;2.63;;
36405;SDS011;22438;42.670;23.288;2023-02-01T01:54:59;4.10;;;2.53;;
36405;SDS011;22438;42.670;23.288;2023-02-01T01:58:21;7.15;;;2.92;;
36405;SDS011;22438;42.670;23.288;2023-02-01T02:01:45;6.32;;;2.85;;
36405;SDS011;22438;42.670;23.288;2023-02-01T02:05:06;8.50;;;3.10;;
36405;SDS011;22438;42.670;23.288;2023-02-01T02:08:28;6.88;;;2.90;;
36405;SDS011;22438;42.670;23.288;2023-02-01T02:11:49;7.35;;;3.00;;
36405;SDS011;22438;42.670;23.288;2023-02-01T02:15:11;5.43;;;3.10;;
36405;SDS011;22438;42.670;23.288;2023-02-01T02:22:58;7.97;;;3.58;;
36405;SDS011;22438;42.670;23.288;2023-02-01T02:26:34;6.32;;;2.20;;
36405;SDS011;22438;42.670;23.288;2023-02-01T02:41:09;9.20;;;2.97;;
36405;SDS011;22438;42.670;23.288;2023-02-01T02:45:07;4.55;;;2.47;;
36405;SDS011;22438;42.670;23.288;2023-02-01T02:48:50;11.75;;;2.83;;
36405;SDS011;22438;42.670;23.288;2023-02-01T02:52:15;8.00;;;2.92;;
36405;SDS011;22438;42.670;23.288;2023-02-01T02:55:56;8.07;;;2.53;;
36405;SDS011;22438;42.670;23.288;2023-02-01T02:59:36;5.85;;;2.38;;
36405;SDS011;22438;42.670;23.288;2023-02-01T03:03:17;6.18;;;2.75;;
36405;SDS011;22438;42.670;23.288;2023-02-01T03:06:56;4.65;;;1.73;;
36405;SDS011;22438;42.670;23.288;2023-02-01T03:14:04;8.30;;;2.50;;
36405;SDS011;22438;42.670;23.288;2023-02-01T03:17:28;4.80;;;2.30;;
36405;SDS011;22438;42.670;23.288;2023-02-01T03:20:52;5.53;;;2.10;;
36405;SDS011;22438;42.670;23.288;2023-02-01T03:24:23;4.47;;;1.75;;
36405;SDS011;22438;42.670;23.288;2023-02-01T03:27:55;4.10;;;1.80;;
36405;SDS011;22438;42.670;23.288;2023-02-01T03:31:18;6.18;;;2.58;;
36405;SDS011;22438;42.670;23.288;2023-02-01T03:34:39;7.65;;;2.60;;
36405;SDS011;22438;42.670;23.288;2023-02-01T03:38:04;5.10;;;2.85;;
36405;SDS011;22438;42.670;23.288;2023-02-01T03:45:22;4.47;;;2.33;;
36405;SDS011;22438;42.670;23.288;2023-02-01T03:48:43;5.57;;;2.38;;
36405;SDS011;22438;42.670;23.288;2023-02-01T03:52:05;8.05;;;2.53;;
36405;SDS011;22438;42.670;23.288;2023-02-01T03:55:27;4.15;;;1.83;;
36405;SDS011;22438;42.670;23.288;2023-02-01T03:58:49;6.78;;;2.17;;
36405;SDS011;22438;42.670;23.288;2023-02-01T04:02:19;4.88;;;1.85;;
36405;SDS011;22438;42.670;23.288;2023-02-01T04:05:39;5.78;;;2.20;;
36405;SDS011;22438;42.670;23.288;2023-02-01T04:09:00;7.32;;;2.33;;
36405;SDS011;22438;42.670;23.288;2023-02-01T04:12:21;7.30;;;2.60;;
36405;SDS011;22438;42.670;23.288;2023-02-01T04:15:42;5.97;;;2.30;;
36405;SDS011;22438;42.670;23.288;2023-02-01T04:19:03;9.73;;;2.60;;
36405;SDS011;22438;42.670;23.288;2023-02-01T04:22:24;5.97;;;2.42;;
36405;SDS011;22438;42.670;23.288;2023-02-01T04:25:44;5.68;;;2.53;;
36405;SDS011;22438;42.670;23.288;2023-02-01T04:29:05;7.50;;;2.97;;
36405;SDS011;22438;42.670;23.288;2023-02-01T04:32:26;7.32;;;3.10;;
36405;SDS011;22438;42.670;23.288;2023-02-01T04:35:47;8.45;;;3.55;;
36405;SDS011;22438;42.670;23.288;2023-02-01T04:39:08;6.97;;;2.85;;
36405;SDS011;22438;42.670;23.288;2023-02-01T04:42:30;8.07;;;2.83;;
36405;SDS011;22438;42.670;23.288;2023-02-01T04:45:50;9.52;;;3.60;;
36405;SDS011;22438;42.670;23.288;2023-02-01T04:49:12;7.03;;;3.30;;
36405;SDS011;22438;42.670;23.288;2023-02-01T04:52:33;6.63;;;3.13;;
36405;SDS011;22438;42.670;23.288;2023-02-01T04:55:54;10.73;;;3.50;;
36405;SDS011;22438;42.670;23.288;2023-02-01T04:59:14;6.65;;;3.20;;
36405;SDS011;22438;42.670;23.288;2023-02-01T05:02:35;7.13;;;3.55;;
36405;SDS011;22438;42.670;23.288;2023-02-01T05:05:56;10.02;;;3.70;;
36405;SDS011;22438;42.670;23.288;2023-02-01T05:09:16;9.90;;;3.70;;
36405;SDS011;22438;42.670;23.288;2023-02-01T05:12:37;9.93;;;3.83;;
36405;SDS011;22438;42.670;23.288;2023-02-01T05:16:16;9.95;;;3.42;;
36405;SDS011;22438;42.670;23.288;2023-02-01T05:19:37;5.55;;;2.40;;
36405;SDS011;22438;42.670;23.288;2023-02-01T05:22:58;6.82;;;3.22;;
36405;SDS011;22438;42.670;23.288;2023-02-01T05:26:19;8.68;;;3.35;;
36405;SDS011;22438;42.670;23.288;2023-02-01T05:29:39;7.97;;;3.97;;
36405;SDS011;22438;42.670;23.288;2023-02-01T05:33:00;13.30;;;4.50;;
36405;SDS011;22438;42.670;23.288;2023-02-01T05:36:21;10.07;;;3.92;;
36405;SDS011;22438;42.670;23.288;2023-02-01T05:39:42;7.88;;;4.28;;
36405;SDS011;22438;42.670;23.288;2023-02-01T05:43:03;9.13;;;4.25;;
36405;SDS011;22438;42.670;23.288;2023-02-01T05:46:23;10.20;;;4.00;;
36405;SDS011;22438;42.670;23.288;2023-02-01T05:49:44;12.27;;;4.50;;
36405;SDS011;22438;42.670;23.288;2023-02-01T05:53:05;10.38;;;4.00;;
36405;SDS011;22438;42.670;23.288;2023-02-01T05:56:26;12.40;;;5.72;;
36405;SDS011;22438;42.670;23.288;2023-02-01T05:59:47;7.15;;;3.00;;
36405;SDS011;22438;42.670;23.288;2023-02-01T06:03:08;9.35;;;3.45;;
36405;SDS011;22438;42.670;23.288;2023-02-01T06:06:29;8.30;;;3.35;;
36405;SDS011;22438;42.670;23.288;2023-02-01T06:09:50;9.05;;;3.80;;
36405;SDS011;22438;42.670;23.288;2023-02-01T06:13:11;10.73;;;3.10;;
36405;SDS011;22438;42.670;23.288;2023-02-01T06:16:31;8.18;;;3.55;;
36405;SDS011;22438;42.670;23.288;2023-02-01T06:19:52;11.18;;;4.30;;
36405;SDS011;22438;42.670;23.288;2023-02-01T06:23:13;8.57;;;3.45;;
36405;SDS011;22438;42.670;23.288;2023-02-01T06:26:34;10.20;;;4.63;;
36405;SDS011;22438;42.670;23.288;2023-02-01T06:29:55;10.23;;;4.57;;
36405;SDS011;22438;42.670;23.288;2023-02-01T06:33:16;16.13;;;3.80;;
36405;SDS011;22438;42.670;23.288;2023-02-01T06:36:36;8.52;;;3.60;;
36405;SDS011;22438;42.670;23.288;2023-02-01T06:39:57;9.70;;;3.80;;
36405;SDS011;22438;42.670;23.288;2023-02-01T06:43:18;13.82;;;4.30;;
36405;SDS011;22438;42.670;23.288;2023-02-01T06:46:38;11.80;;;3.95;;
36405;SDS011;22438;42.670;23.288;2023-02-01T06:49:59;12.48;;;5.75;;
36405;SDS011;22438;42.670;23.288;2023-02-01T06:53:20;16.05;;;5.18;;
36405;SDS011;22438;42.670;23.288;2023-02-01T06:56:41;16.38;;;5.00;;
36405;SDS011;22438;42.670;23.288;2023-02-01T07:00:02;13.32;;;4.35;;
36405;SDS011;22438;42.670;23.288;2023-02-01T07:03:24;10.13;;;3.97;;
36405;SDS011;22438;42.670;23.288;2023-02-01T07:06:44;10.27;;;3.25;;
36405;SDS011;22438;42.670;23.288;2023-02-01T07:10:05;8.57;;;3.30;;
36405;SDS011;22438;42.670;23.288;2023-02-01T07:13:26;10.45;;;3.88;;
36405;SDS011;22438;42.670;23.288;2023-02-01T07:16:47;8.77;;;3.90;;
36405;SDS011;22438;42.670;23.288;2023-02-01T07:20:08;6.80;;;2.35;;
36405;SDS011;22438;42.670;23.288;2023-02-01T07:23:29;16.92;;;5.78;;
36405;SDS011;22438;42.670;23.288;2023-02-01T07:26:49;8.70;;;2.97;;
36405;SDS011;22438;42.670;23.288;2023-02-01T07:30:11;9.95;;;4.38;;
36405;SDS011;22438;42.670;23.288;2023-02-01T07:33:32;10.80;;;4.13;;
36405;SDS011;22438;42.670;23.288;2023-02-01T07:36:53;10.65;;;3.40;;
36405;SDS011;22438;42.670;23.288;2023-02-01T07:40:14;8.43;;;4.10;;
36405;SDS011;22438;42.670;23.288;2023-02-01T07:43:34;9.57;;;3.63;;
36405;SDS011;22438;42.670;23.288;2023-02-01T07:46:55;8.13;;;2.92;;
36405;SDS011;22438;42.670;23.288;2023-02-01T07:50:16;7.95;;;3.20;;
36405;SDS011;22438;42.670;23.288;2023-02-01T07:53:37;8.65;;;3.53;;
36405;SDS011;22438;42.670;23.288;2023-02-01T07:56:58;9.10;;;3.78;;
36405;SDS011;22438;42.670;23.288;2023-02-01T08:00:19;12.80;;;6.68;;
36405;SDS011;22438;42.670;23.288;2023-02-01T08:03:59;11.48;;;4.28;;
36405;SDS011;22438;42.670;23.288;2023-02-01T08:07:22;11.60;;;3.63;;
36405;SDS011;22438;42.670;23.288;2023-02-01T08:10:42;9.68;;;3.22;;
36405;SDS011;22438;42.670;23.288;2023-02-01T08:14:03;7.93;;;3.17;;
36405;SDS011;22438;42.670;23.288;2023-02-01T08:17:25;7.60;;;3.00;;
36405;SDS011;22438;42.670;23.288;2023-02-01T08:20:46;9.70;;;2.85;;
36405;SDS011;22438;42.670;23.288;2023-02-01T08:24:08;8.55;;;2.72;;
36405;SDS011;22438;42.670;23.288;2023-02-01T08:27:29;12.45;;;2.90;;
36405;SDS011;22438;42.670;23.288;2023-02-01T08:30:53;11.40;;;3.60;;
36405;SDS011;22438;42.670;23.288;2023-02-01T08:34:13;7.57;;;2.72;;
36405;SDS011;22438;42.670;23.288;2023-02-01T08:37:34;17.10;;;4.22;;
36405;SDS011;22438;42.670;23.288;2023-02-01T08:40:55;14.38;;;4.40;;
36405;SDS011;22438;42.670;23.288;2023-02-01T08:44:17;9.15;;;3.95;;
36405;SDS011;22438;42.670;23.288;2023-02-01T08:47:38;8.93;;;3.30;;
36405;SDS011;22438;42.670;23.288;2023-02-01T08:51:02;8.82;;;3.30;;
36405;SDS011;22438;42.670;23.288;2023-02-01T08:54:27;12.55;;;3.50;;
36405;SDS011;22438;42.670;23.288;2023-02-01T08:57:48;11.65;;;4.38;;
36405;SDS011;22438;42.670;23.288;2023-02-01T09:01:10;11.38;;;3.95;;
36405;SDS011;22438;42.670;23.288;2023-02-01T09:04:32;10.70;;;3.80;;
36405;SDS011;22438;42.670;23.288;2023-02-01T21:18:50;25.30;;;10.73;;
36405;SDS011;22438;42.670;23.288;2023-02-01T21:43:01;26.98;;;10.38;;
36405;SDS011;22438;42.670;23.288;2023-02-01T21:46:22;24.00;;;9.75;;
36405;SDS011;22438;42.670;23.288;2023-02-01T21:49:43;22.45;;;9.52;;
36405;SDS011;22438;42.670;23.288;2023-02-01T21:53:04;24.20;;;10.20;;
36405;SDS011;22438;42.670;23.288;2023-02-01T21:56:26;19.70;;;8.32;;
36405;SDS011;22438;42.670;23.288;2023-02-01T21:59:46;18.95;;;8.70;;
36405;SDS011;22438;42.670;23.288;2023-02-01T22:03:07;19.38;;;8.60;;
